Danville, Illinois
Current Conditions -  °F | °C
As of 2:15 PM on Wednesday 26 Nov 2014 (Local Time) from KDNV Reporting Station
Broken Clouds Broken Clouds  
Wind Chill: 32°   Ceiling: 1900
Heat Index: 32°   Visibility: 10mi
Dew Point: 24°   Wind: 3mph
Humidity: 73%   Direction: 80°E
Pressure: 30.04"   Gusts: NA
Location:  40.16°N, 87.63°W
Report Text: KDNV 262015Z AUTO 08003KT 10SM BKN019 00/M04 A3004 RMK AO2 T00001044
Loading
Personal Weather Stations






























Interactive Weather Map New forecast layout! Learn more

10-Day Weather Forecast

Advertisements
Track Severe Weather on mobile